createdAt,value
2019-05-11T00:01:27.980Z,10.50
2019-05-11T00:03:56.419Z,10.60
2019-05-11T00:06:24.897Z,10.60
2019-05-11T00:08:53.350Z,10.50
2019-05-11T00:11:21.794Z,10.50
2019-05-11T00:13:50.238Z,10.50
2019-05-11T00:16:19.227Z,10.40
2019-05-11T00:18:47.887Z,10.40
2019-05-11T00:21:16.391Z,10.30
2019-05-11T00:23:44.838Z,10.20
2019-05-11T00:26:13.295Z,10.20
2019-05-11T00:28:41.770Z,10.10
2019-05-11T00:31:10.218Z,10.10
2019-05-11T00:33:38.651Z,10.10
2019-05-11T00:36:07.103Z,10.10
2019-05-11T00:38:35.536Z,10.00
2019-05-11T00:41:03.985Z,10.00
2019-05-11T00:43:32.423Z,9.90
2019-05-11T00:46:00.859Z,9.90
2019-05-11T00:48:29.358Z,9.80
2019-05-11T00:50:57.802Z,9.80
2019-05-11T00:53:26.237Z,9.80
2019-05-11T00:55:54.898Z,9.80
2019-05-11T00:58:23.460Z,9.80
2019-05-11T01:00:51.894Z,9.80
2019-05-11T01:03:20.319Z,9.80
2019-05-11T01:05:48.804Z,9.80
2019-05-11T01:08:17.232Z,9.80
2019-05-11T01:10:45.660Z,9.70
2019-05-11T01:13:14.121Z,9.70
2019-05-11T01:15:42.548Z,9.60
2019-05-11T01:18:11.376Z,9.50
2019-05-11T01:20:39.810Z,9.50
2019-05-11T01:23:08.319Z,9.40
2019-05-11T01:25:36.771Z,9.40
2019-05-11T01:28:05.359Z,9.40
2019-05-11T01:30:33.802Z,9.30
2019-05-11T01:33:02.274Z,9.20
2019-05-11T01:35:30.820Z,9.20
2019-05-11T01:37:59.608Z,9.10
2019-05-11T01:40:28.048Z,9.10
2019-05-11T01:42:56.507Z,9.10
2019-05-11T01:45:24.994Z,9.10
2019-05-11T01:47:53.436Z,9.10
2019-05-11T01:50:21.868Z,9.10
2019-05-11T01:52:50.320Z,9.00
2019-05-11T01:55:18.757Z,9.00
2019-05-11T01:57:47.193Z,9.00
2019-05-11T02:00:15.859Z,9.00
2019-05-11T02:02:44.316Z,9.00
2019-05-11T02:05:28.980Z,8.90
2019-05-11T02:07:58.751Z,8.90
2019-05-11T02:10:27.633Z,8.90
2019-05-11T02:12:56.141Z,8.80
2019-05-11T02:15:24.650Z,8.70
2019-05-11T02:17:53.178Z,8.70
2019-05-11T02:20:21.666Z,8.70
2019-05-11T02:22:50.097Z,8.60
2019-05-11T02:25:18.515Z,8.60
2019-05-11T02:27:47.152Z,8.60
2019-05-11T02:30:15.733Z,8.60
2019-05-11T02:32:44.336Z,8.60
2019-05-11T02:35:13.078Z,8.50
2019-05-11T02:37:41.659Z,8.50
2019-05-11T02:40:10.848Z,8.40
2019-05-11T02:42:39.503Z,8.40
2019-05-11T02:45:08.356Z,8.50
2019-05-11T02:47:36.914Z,8.60
2019-05-11T02:50:05.804Z,8.50
2019-05-11T02:52:35.250Z,8.50
2019-05-11T02:55:04.071Z,8.50
2019-05-11T02:57:32.569Z,8.40
2019-05-11T03:00:01.040Z,8.30
2019-05-11T03:02:29.569Z,8.30
2019-05-11T03:04:58.094Z,8.30
2019-05-11T03:07:26.538Z,8.30
2019-05-11T03:09:55.042Z,8.30
2019-05-11T03:12:23.497Z,8.40
2019-05-11T03:14:51.991Z,8.50
2019-05-11T03:17:22.172Z,8.50
2019-05-11T03:19:50.691Z,8.50
2019-05-11T03:22:19.146Z,8.40
2019-05-11T03:24:47.816Z,8.50
2019-05-11T03:27:16.250Z,8.50
2019-05-11T03:29:44.718Z,8.50
2019-05-11T03:32:13.184Z,8.60
2019-05-11T03:34:41.744Z,8.60
2019-05-11T03:37:10.252Z,8.60
2019-05-11T03:39:38.705Z,8.60
2019-05-11T03:42:14.615Z,8.70
2019-05-11T03:44:37.377Z,8.80
2019-05-11T03:47:05.844Z,8.80
2019-05-11T03:49:34.285Z,8.80
2019-05-11T03:52:02.728Z,8.80
2019-05-11T03:54:31.199Z,8.80
2019-05-11T03:56:59.645Z,8.80
2019-05-11T03:59:28.355Z,8.90
2019-05-11T04:01:56.834Z,9.00
2019-05-11T04:04:25.357Z,9.00
2019-05-11T04:06:53.827Z,9.00
2019-05-11T04:09:22.394Z,9.00
2019-05-11T04:11:50.870Z,9.00
2019-05-11T04:14:19.486Z,8.90
2019-05-11T04:16:48.068Z,9.00
2019-05-11T04:19:16.521Z,9.10
2019-05-11T04:21:45.669Z,9.20
2019-05-11T04:24:14.223Z,9.20
2019-05-11T04:26:42.681Z,9.30
2019-05-11T04:29:11.188Z,9.40
2019-05-11T04:31:42.727Z,9.40
2019-05-11T04:34:11.193Z,9.40
2019-05-11T04:36:39.636Z,9.50
2019-05-11T04:39:08.172Z,9.50
2019-05-11T04:41:36.652Z,9.60
2019-05-11T04:44:05.148Z,9.50
2019-05-11T04:46:33.592Z,9.50
2019-05-11T04:49:02.123Z,9.60
2019-05-11T04:51:36.558Z,9.60
2019-05-11T04:54:05.658Z,9.70
2019-05-11T04:56:34.090Z,9.70
2019-05-11T04:59:02.569Z,9.80
2019-05-11T05:01:31.081Z,10.00
2019-05-11T05:04:13.396Z,10.00
2019-05-11T05:06:29.770Z,10.10
2019-05-11T05:09:03.523Z,10.10
2019-05-11T05:11:30.621Z,10.10
2019-05-11T05:14:01.862Z,10.10
2019-05-11T05:16:31.377Z,10.20
2019-05-11T05:18:59.033Z,10.30
2019-05-11T05:21:27.661Z,10.40
2019-05-11T05:23:56.447Z,10.40
2019-05-11T05:26:25.689Z,10.50
2019-05-11T05:28:54.272Z,10.60
2019-05-11T05:31:22.790Z,10.70
2019-05-11T05:33:51.242Z,10.70
2019-05-11T05:36:19.718Z,10.70
2019-05-11T05:38:48.209Z,10.80
2019-05-11T05:41:16.669Z,11.00
2019-05-11T05:43:45.145Z,11.10
2019-05-11T05:46:19.908Z,11.20
2019-05-11T05:48:48.384Z,11.30
2019-05-11T05:51:16.905Z,11.40
2019-05-11T05:53:45.332Z,11.50
2019-05-11T05:56:13.768Z,11.60
2019-05-11T05:58:42.218Z,11.70
2019-05-11T06:01:10.752Z,11.90
2019-05-11T06:03:39.272Z,11.90
2019-05-11T06:06:07.706Z,12.20
2019-05-11T06:08:36.164Z,12.30
2019-05-11T06:11:04.620Z,12.30
2019-05-11T06:13:44.442Z,12.50
2019-05-11T06:16:03.376Z,12.70
2019-05-11T06:18:31.858Z,12.80
2019-05-11T06:21:00.411Z,12.80
2019-05-11T06:23:28.889Z,12.80
2019-05-11T06:25:57.395Z,12.80
2019-05-11T06:28:25.890Z,12.80
2019-05-11T06:30:54.342Z,12.90
2019-05-11T06:33:22.767Z,12.90
2019-05-11T06:35:51.309Z,13.00
2019-05-11T06:38:19.825Z,12.90
2019-05-11T06:40:48.281Z,12.90
2019-05-11T06:43:17.013Z,12.90
2019-05-11T06:45:45.496Z,13.10
2019-05-11T06:48:14.038Z,13.30
2019-05-11T06:50:42.574Z,13.40
2019-05-11T06:53:11.079Z,13.50
2019-05-11T06:55:39.573Z,13.60
2019-05-11T06:58:08.013Z,13.70
2019-05-11T07:00:36.495Z,13.70
2019-05-11T07:03:05.167Z,13.90
2019-05-11T07:05:34.241Z,13.80
2019-05-11T07:08:02.808Z,13.80
2019-05-11T07:10:31.918Z,13.90
2019-05-11T07:13:00.377Z,13.90
2019-05-11T07:15:28.936Z,14.10
2019-05-11T07:17:59.478Z,14.10
2019-05-11T07:20:49.953Z,14.20
2019-05-11T07:23:10.661Z,14.30
2019-05-11T07:25:39.202Z,14.50
2019-05-11T07:28:09.495Z,14.40
2019-05-11T07:30:38.240Z,14.40
2019-05-11T07:36:32.447Z,14.60
2019-05-11T07:36:41.527Z,14.50
2019-05-11T07:42:08.830Z,15.00
2019-05-11T07:44:41.065Z,15.10
2019-05-11T07:47:13.495Z,15.20
2019-05-11T07:49:42.250Z,15.30
2019-05-11T07:52:10.956Z,15.40
2019-05-11T07:54:53.873Z,15.50
2019-05-11T07:57:22.447Z,15.50
2019-05-11T08:00:08.070Z,15.50
2019-05-11T08:02:38.463Z,15.60
2019-05-11T08:05:08.655Z,15.70
2019-05-11T08:07:38.699Z,15.70
2019-05-11T08:10:08.383Z,15.70
2019-05-11T08:12:39.211Z,15.80
2019-05-11T08:18:28.415Z,16.00
2019-05-11T08:21:02.598Z,16.20
2019-05-11T08:23:47.663Z,16.40
2019-05-11T08:26:35.397Z,16.50
2019-05-11T08:29:03.846Z,16.80
2019-05-11T08:31:32.271Z,17.10
2019-05-11T08:34:00.706Z,17.20
2019-05-11T08:36:29.233Z,17.40
2019-05-11T08:38:58.513Z,17.40
2019-05-11T08:41:28.059Z,17.60
2019-05-11T08:43:58.608Z,18.00
2019-05-11T08:46:27.976Z,18.10
2019-05-11T08:48:56.636Z,17.80
2019-05-11T08:51:25.058Z,17.80
2019-05-11T08:53:53.549Z,18.00
2019-05-11T08:56:21.986Z,18.20
2019-05-11T08:58:50.586Z,18.30
2019-05-11T09:01:19.027Z,18.40
2019-05-11T09:03:47.904Z,18.60
2019-05-11T09:06:17.954Z,18.80
2019-05-11T09:08:49.129Z,19.00
2019-05-11T09:11:18.813Z,18.90
2019-05-11T09:13:48.876Z,18.50
2019-05-11T09:16:19.029Z,18.50
2019-05-11T09:18:47.919Z,18.70
2019-05-11T09:21:19.093Z,18.70
2019-05-11T09:23:48.659Z,18.80
2019-05-11T09:26:18.157Z,18.80
2019-05-11T09:28:47.611Z,18.50
2019-05-11T09:31:18.626Z,18.40
2019-05-11T09:33:47.968Z,18.20
2019-05-11T09:36:18.122Z,18.00
2019-05-11T09:38:48.989Z,17.80
2019-05-11T09:41:18.097Z,17.70
2019-05-11T09:43:48.307Z,17.60
2019-05-11T09:46:18.908Z,17.40
2019-05-11T09:48:48.318Z,17.30
2019-05-11T09:51:18.410Z,17.30
2019-05-11T09:53:48.289Z,17.30
2019-05-11T09:56:18.362Z,17.30
2019-05-11T09:58:47.920Z,17.30
2019-05-11T10:01:18.373Z,17.30
2019-05-11T10:03:48.521Z,17.20
2019-05-11T10:06:18.935Z,17.20
2019-05-11T10:08:48.626Z,17.10
2019-05-11T10:11:18.920Z,17.20
2019-05-11T10:13:47.851Z,17.20
2019-05-11T10:16:17.938Z,17.30
2019-05-11T10:18:48.923Z,17.50
2019-05-11T10:21:18.836Z,17.20
2019-05-11T10:23:48.862Z,17.10
2019-05-11T10:26:18.793Z,17.10
2019-05-11T10:28:49.051Z,17.10
2019-05-11T10:31:18.237Z,17.10
2019-05-11T10:33:48.938Z,16.90
2019-05-11T10:36:18.939Z,16.90
2019-05-11T10:38:48.623Z,16.90
2019-05-11T10:41:18.061Z,17.00
2019-05-11T10:43:48.871Z,17.10
2019-05-11T10:46:23.030Z,17.20
2019-05-11T10:48:48.202Z,17.20
2019-05-11T10:51:18.332Z,17.20
2019-05-11T10:53:51.702Z,17.20
2019-05-11T10:56:17.823Z,17.10
2019-05-11T10:58:48.252Z,17.10
2019-05-11T11:01:18.169Z,17.10
2019-05-11T11:03:48.415Z,17.10
2019-05-11T11:06:18.871Z,17.00
2019-05-11T11:08:48.707Z,17.10
2019-05-11T11:11:18.446Z,17.10
2019-05-11T11:13:47.973Z,17.10
2019-05-11T11:16:32.725Z,17.20
2019-05-11T11:18:48.536Z,17.20
2019-05-11T11:21:22.118Z,17.10
2019-05-11T11:23:48.014Z,17.10
2019-05-11T11:26:18.519Z,17.10
2019-05-11T11:28:47.770Z,17.00
2019-05-11T11:31:18.630Z,16.90
2019-05-11T11:33:48.905Z,17.00
2019-05-11T11:36:17.887Z,17.00
2019-05-11T11:38:47.890Z,17.00
2019-05-11T11:41:18.601Z,16.90
2019-05-11T11:43:48.333Z,17.00
2019-05-11T11:46:18.729Z,17.00
2019-05-11T11:48:48.975Z,17.10
2019-05-11T11:51:18.707Z,17.10
2019-05-11T11:53:47.945Z,17.10
2019-05-11T11:56:18.872Z,17.20
2019-05-11T11:58:48.768Z,17.10
2019-05-11T12:01:18.898Z,17.00
2019-05-11T12:03:48.742Z,17.00
2019-05-11T12:06:18.198Z,16.90
2019-05-11T12:08:49.372Z,16.80
2019-05-11T12:11:18.774Z,16.80
2019-05-11T12:13:47.795Z,16.90
2019-05-11T12:16:18.038Z,16.80
2019-05-11T12:18:48.562Z,16.70
2019-05-11T12:21:18.573Z,16.70
2019-05-11T12:23:48.493Z,16.70
2019-05-11T12:26:17.739Z,16.70
2019-05-11T12:28:48.795Z,16.70
2019-05-11T12:31:18.390Z,16.70
2019-05-11T12:33:48.276Z,16.70
2019-05-11T12:36:18.710Z,16.60
2019-05-11T12:38:48.891Z,16.60
2019-05-11T12:41:18.982Z,16.60
2019-05-11T12:43:48.917Z,16.60
2019-05-11T12:46:18.914Z,16.50
2019-05-11T12:48:48.425Z,16.40
2019-05-11T12:51:18.572Z,16.40
2019-05-11T12:53:47.772Z,16.40
2019-05-11T12:56:18.772Z,16.40
2019-05-11T12:58:48.965Z,16.40
2019-05-11T13:01:18.656Z,16.30
2019-05-11T13:03:48.990Z,16.20
2019-05-11T13:06:19.035Z,16.20
2019-05-11T13:08:48.045Z,16.20
2019-05-11T13:11:18.770Z,16.10
2019-05-11T13:13:48.406Z,16.00
2019-05-11T13:16:18.354Z,15.90
2019-05-11T13:18:48.686Z,15.80
2019-05-11T13:21:18.301Z,15.70
2019-05-11T13:23:48.824Z,15.70
2019-05-11T13:26:18.057Z,15.60
2019-05-11T13:28:48.430Z,15.60
2019-05-11T13:31:18.731Z,15.60
2019-05-11T13:33:47.955Z,15.60
2019-05-11T13:36:18.695Z,15.60
2019-05-11T13:38:48.333Z,15.60
2019-05-11T13:41:18.878Z,15.60
2019-05-11T13:43:48.576Z,15.40
2019-05-11T13:46:17.926Z,15.20
2019-05-11T13:48:47.640Z,15.20
2019-05-11T13:51:18.311Z,15.20
2019-05-11T13:53:48.144Z,15.20
2019-05-11T13:56:18.422Z,15.10
2019-05-11T13:58:48.743Z,15.20
2019-05-11T14:01:20.188Z,15.30
2019-05-11T14:03:48.902Z,15.20
2019-05-11T14:06:18.511Z,15.20
2019-05-11T14:08:48.193Z,15.20
2019-05-11T14:11:18.285Z,15.00
2019-05-11T14:14:07.715Z,15.00
2019-05-11T14:16:37.968Z,15.00
2019-05-11T14:19:08.625Z,14.90
2019-05-11T14:21:38.467Z,14.90
2019-05-11T14:24:07.803Z,14.90
2019-05-11T14:26:38.579Z,14.90
2019-05-11T14:29:08.526Z,14.90
2019-05-11T14:31:38.633Z,14.90
2019-05-11T14:34:08.819Z,14.90
2019-05-11T14:36:38.750Z,14.80
2019-05-11T14:39:08.464Z,14.80
2019-05-11T14:41:38.011Z,14.70
2019-05-11T14:44:08.879Z,14.70
2019-05-11T14:46:38.445Z,14.70
2019-05-11T14:49:07.910Z,14.70
2019-05-11T14:51:38.836Z,14.70
2019-05-11T14:54:08.242Z,14.70
2019-05-11T14:56:38.020Z,14.70
2019-05-11T14:59:08.989Z,14.70
2019-05-11T15:01:38.115Z,14.60
2019-05-11T15:04:08.926Z,14.60
2019-05-11T15:06:38.595Z,14.60
2019-05-11T15:09:08.411Z,14.50
2019-05-11T15:11:38.815Z,14.50
2019-05-11T15:14:08.108Z,14.50
2019-05-11T15:16:38.422Z,14.40
2019-05-11T15:19:08.009Z,14.40
2019-05-11T15:21:38.511Z,14.40
2019-05-11T15:24:09.141Z,14.40
2019-05-11T15:26:38.136Z,14.40
2019-05-11T15:29:08.086Z,14.40
2019-05-11T15:31:38.072Z,14.40
2019-05-11T15:34:08.561Z,14.30
2019-05-11T15:36:38.690Z,14.30
2019-05-11T15:39:08.148Z,14.20
2019-05-11T15:41:38.608Z,14.00
2019-05-11T15:44:11.467Z,13.90
2019-05-11T15:46:38.854Z,13.90
2019-05-11T15:49:08.810Z,13.90
2019-05-11T15:51:40.731Z,13.90
2019-05-11T15:54:07.922Z,13.70
2019-05-11T15:56:38.562Z,13.70
2019-05-11T15:59:08.716Z,13.60
2019-05-11T16:01:38.238Z,13.60
2019-05-11T16:04:09.070Z,13.60
2019-05-11T16:06:37.164Z,13.50
2019-05-11T16:09:08.251Z,13.40
2019-05-11T16:11:38.735Z,13.40
2019-05-11T16:14:08.684Z,13.30
2019-05-11T16:16:38.994Z,13.30
2019-05-11T16:19:14.470Z,13.30
2019-05-11T16:21:38.478Z,13.20
2019-05-11T16:24:08.073Z,13.20
2019-05-11T16:26:36.767Z,13.10
2019-05-11T16:29:05.348Z,13.10
2019-05-11T16:31:33.769Z,13.00
2019-05-11T16:34:02.720Z,13.00
2019-05-11T16:36:31.404Z,13.00
2019-05-11T16:38:59.836Z,12.90
2019-05-11T16:41:29.174Z,12.90
2019-05-11T16:43:58.571Z,12.90
2019-05-11T16:46:28.454Z,12.90
2019-05-11T16:48:57.837Z,12.90
2019-05-11T16:51:28.487Z,12.90
2019-05-11T16:53:58.778Z,12.90
2019-05-11T16:56:26.911Z,13.00
2019-05-11T16:58:55.375Z,13.00
2019-05-11T17:01:23.812Z,12.90
2019-05-11T17:03:52.250Z,12.90
2019-05-11T17:06:20.684Z,12.90
2019-05-11T17:08:49.118Z,12.90
2019-05-11T17:11:18.687Z,12.90
2019-05-11T17:13:48.315Z,12.90
2019-05-11T17:16:17.967Z,13.00
2019-05-11T17:18:48.332Z,13.00
2019-05-11T17:21:18.349Z,13.10
2019-05-11T17:23:48.885Z,13.20
2019-05-11T17:26:18.977Z,13.30
2019-05-11T17:28:48.942Z,13.30
2019-05-11T17:31:18.817Z,13.40
2019-05-11T17:33:47.795Z,13.50
2019-05-11T17:36:18.468Z,13.50
2019-05-11T17:38:47.961Z,13.50
2019-05-11T17:41:16.547Z,13.50
2019-05-11T17:43:45.066Z,13.50
2019-05-11T17:46:13.679Z,13.40
2019-05-11T17:48:42.178Z,13.50
2019-05-11T17:51:21.409Z,13.50
2019-05-11T17:53:40.763Z,13.50
2019-05-11T17:56:09.207Z,13.50
2019-05-11T17:58:38.031Z,13.60
2019-05-11T18:01:09.179Z,13.60
2019-05-11T18:03:38.495Z,13.70
2019-05-11T18:06:08.567Z,13.80
2019-05-11T18:08:37.147Z,13.70
2019-05-11T18:11:08.196Z,13.60
2019-05-11T18:13:35.747Z,13.70
2019-05-11T18:16:04.352Z,13.60
2019-05-11T18:18:32.772Z,13.50
2019-05-11T18:21:01.224Z,13.50
2019-05-11T18:23:29.804Z,13.50
2019-05-11T18:25:58.234Z,13.40
2019-05-11T18:28:29.071Z,13.40
2019-05-11T18:30:58.219Z,13.30
2019-05-11T18:33:27.759Z,13.20
2019-05-11T18:35:58.526Z,13.20
2019-05-11T18:38:27.606Z,13.10
2019-05-11T18:40:58.009Z,13.10
2019-05-11T18:43:28.053Z,13.10
2019-05-11T18:45:58.158Z,13.10
2019-05-11T18:48:28.870Z,13.00
2019-05-11T18:50:58.936Z,12.90
2019-05-11T18:53:28.856Z,12.90
2019-05-11T18:55:59.003Z,12.90
2019-05-11T18:58:27.948Z,12.80
2019-05-11T19:00:56.595Z,12.70
2019-05-11T19:03:25.048Z,12.60
2019-05-11T19:05:53.489Z,12.50
2019-05-11T19:08:21.927Z,12.40
2019-05-11T19:10:50.596Z,12.40
2019-05-11T19:13:19.062Z,12.30
2019-05-11T19:15:48.655Z,12.30
2019-05-11T19:18:17.491Z,12.10
2019-05-11T19:20:49.138Z,12.10
2019-05-11T19:23:16.066Z,12.10
2019-05-11T19:25:44.484Z,12.10
2019-05-11T19:28:12.920Z,12.20
2019-05-11T19:30:41.350Z,12.30
2019-05-11T19:33:11.315Z,12.30
2019-05-11T19:35:39.894Z,12.20
2019-05-11T19:38:08.790Z,12.10
2019-05-11T19:40:38.276Z,12.10
2019-05-11T19:43:08.165Z,12.00
2019-05-11T19:45:38.368Z,11.90
2019-05-11T19:48:08.354Z,11.80
2019-05-11T19:50:38.157Z,11.70
2019-05-11T19:53:08.435Z,11.60
2019-05-11T19:55:37.170Z,11.50
2019-05-11T19:58:06.532Z,11.50
2019-05-11T20:00:34.948Z,11.50
2019-05-11T20:03:03.447Z,11.50
2019-05-11T20:05:31.922Z,11.50
2019-05-11T20:08:00.412Z,11.50
2019-05-11T20:10:28.898Z,11.50
2019-05-11T20:12:58.817Z,11.50
2019-05-11T20:15:27.535Z,11.60
2019-05-11T20:17:55.977Z,11.60
2019-05-11T20:20:24.990Z,11.50
2019-05-11T20:22:53.431Z,11.50
2019-05-11T20:25:21.860Z,11.50
2019-05-11T20:27:50.295Z,11.50
2019-05-11T20:30:19.298Z,11.50
2019-05-11T20:32:48.890Z,11.50
2019-05-11T20:35:17.705Z,11.50
2019-05-11T20:37:46.246Z,11.40
2019-05-11T20:40:15.106Z,11.40
2019-05-11T20:42:43.631Z,11.40
2019-05-11T20:45:12.490Z,11.40
2019-05-11T20:47:41.224Z,11.40
2019-05-11T20:50:10.288Z,11.30
2019-05-11T20:52:40.116Z,11.30
2019-05-11T20:55:09.110Z,11.30
2019-05-11T20:57:39.316Z,11.20
2019-05-11T21:00:10.215Z,11.20
2019-05-11T21:02:38.658Z,11.20
2019-05-11T21:05:08.993Z,11.20
2019-05-11T21:07:38.978Z,11.30
2019-05-11T21:10:09.092Z,11.30
2019-05-11T21:12:38.950Z,11.30
2019-05-11T21:15:09.409Z,11.20
2019-05-11T21:17:38.044Z,11.20
2019-05-11T21:20:08.253Z,11.10
2019-05-11T21:22:40.024Z,11.10
2019-05-11T21:25:28.491Z,11.10
2019-05-11T21:27:57.913Z,11.00
2019-05-11T21:30:26.664Z,11.00
2019-05-11T21:32:55.084Z,11.00
2019-05-11T21:35:23.527Z,10.90
2019-05-11T21:37:51.980Z,10.90
2019-05-11T21:40:20.515Z,10.90
2019-05-11T21:42:49.016Z,10.90
2019-05-11T21:45:18.500Z,10.80
2019-05-11T21:47:48.954Z,10.70
2019-05-11T21:50:19.035Z,10.80
2019-05-11T21:52:48.454Z,10.70
2019-05-11T21:55:17.132Z,10.70
2019-05-11T21:57:49.422Z,10.70
2019-05-11T22:00:16.100Z,10.70
2019-05-11T22:02:45.404Z,10.70
2019-05-11T22:05:14.395Z,10.70
2019-05-11T22:07:42.842Z,10.70
2019-05-11T22:10:12.898Z,10.70
2019-05-11T22:12:41.341Z,10.60
2019-05-11T22:15:10.401Z,10.60
2019-05-11T22:17:39.846Z,10.70
2019-05-11T22:20:09.407Z,10.70
2019-05-11T22:22:38.972Z,10.70
2019-05-11T22:25:09.014Z,10.60
2019-05-11T22:27:38.800Z,10.50
2019-05-11T22:30:08.674Z,10.50
2019-05-11T22:32:38.412Z,10.50
2019-05-11T22:35:08.181Z,10.50
2019-05-11T22:37:38.772Z,10.50
2019-05-11T22:40:08.362Z,10.60
2019-05-11T22:42:37.044Z,10.60
2019-05-11T22:45:08.400Z,10.60
2019-05-11T22:47:39.372Z,10.70
2019-05-11T22:50:08.498Z,10.70
2019-05-11T22:52:40.105Z,10.80
2019-05-11T22:55:11.690Z,10.70
2019-05-11T22:57:38.722Z,10.70
2019-05-11T23:00:09.630Z,10.70
2019-05-11T23:02:38.382Z,10.70
2019-05-11T23:05:08.656Z,10.70
2019-05-11T23:07:41.531Z,10.70
2019-05-11T23:10:10.167Z,10.70
2019-05-11T23:12:38.882Z,10.70
2019-05-11T23:15:14.610Z,10.60
2019-05-11T23:17:43.167Z,10.70
2019-05-11T23:20:12.180Z,10.70
2019-05-11T23:22:57.591Z,10.60
2019-05-11T23:25:20.092Z,10.60
2019-05-11T23:27:48.982Z,10.60
2019-05-11T23:30:19.697Z,10.50
2019-05-11T23:32:49.429Z,10.40
2019-05-11T23:35:18.855Z,10.40
2019-05-11T23:37:49.397Z,10.40
2019-05-11T23:40:18.956Z,10.40
2019-05-11T23:42:49.050Z,10.30
2019-05-11T23:45:19.126Z,10.30
2019-05-11T23:47:48.873Z,10.40
2019-05-11T23:50:18.956Z,10.30
2019-05-11T23:52:50.109Z,10.30
2019-05-11T23:55:19.095Z,10.30
2019-05-11T23:57:48.798Z,10.30
